Time;durP1;ratioP1;P1;durP2;ratioP2;P2;SDS_P1;SDS_P2;PMS_P1;PMS_P2;Temp;Humidity;BMP_temperature;BMP_pressure;BME280_temperature;BME280_humidity;BME280_pressure;Samples;Min_cycle;Max_cycle;Signal;HPM_P1;HPM_P2
2022/05/11 00:00:32;;;;;;;8.40;2.80;;;;;;;16.77;55.57;101231.78;6165121;23;20032;-81
2022/05/11 00:02:57;;;;;;;5.40;3.00;;;;;;;16.77;55.25;101232.66;6165007;23;20013;-81
2022/05/11 00:05:23;;;;;;;4.15;2.65;;;;;;;16.75;55.59;101237.34;6166449;23;20010;-81
2022/05/11 00:07:49;;;;;;;7.53;2.60;;;;;;;16.72;55.74;101231.41;6167918;23;20002;-82
2022/05/11 00:10:14;;;;;;;11.40;3.20;;;;;;;16.74;55.57;101237.47;6168593;23;20001;-82
2022/05/11 00:12:42;;;;;;;6.18;3.00;;;;;;;16.71;55.16;101230.56;6169616;23;20014;-80
2022/05/11 00:15:10;;;;;;;8.90;2.88;;;;;;;16.69;55.96;101226.34;6168042;23;20006;-81
2022/05/11 00:17:35;;;;;;;6.93;3.10;;;;;;;16.65;55.51;101218.59;6170532;23;20499;-81
2022/05/11 00:20:01;;;;;;;5.30;2.88;;;;;;;16.61;55.03;101211.81;6168732;23;20014;-81
2022/05/11 00:22:27;;;;;;;4.70;2.60;;;;;;;16.61;55.31;101213.69;6173834;23;20066;-81
2022/05/11 00:24:52;;;;;;;6.95;3.50;;;;;;;16.66;55.59;101216.75;6167654;23;20005;-81
2022/05/11 00:27:18;;;;;;;5.93;2.70;;;;;;;16.59;55.41;101204.94;6168316;23;20001;-81
2022/05/11 00:29:43;;;;;;;5.32;3.15;;;;;;;16.62;55.14;101207.28;6173645;23;19993;-81
2022/05/11 00:32:08;;;;;;;5.82;2.85;;;;;;;16.60;55.43;101201.25;6181086;23;20010;-81
2022/05/11 00:34:34;;;;;;;7.10;3.05;;;;;;;16.60;55.39;101187.84;6175372;23;20001;-81
2022/05/11 00:37:02;;;;;;;4.80;2.78;;;;;;;16.60;55.44;101201.25;6168999;23;20049;-81
2022/05/11 00:39:27;;;;;;;4.88;2.60;;;;;;;16.59;54.83;101200.41;6169126;23;19998;-81
2022/05/11 00:41:53;;;;;;;7.32;2.63;;;;;;;16.55;55.19;101200.84;6168363;23;20002;-81
2022/05/11 00:44:20;;;;;;;4.25;3.03;;;;;;;16.55;55.23;101182.06;6169036;23;20069;-82
2022/05/11 00:47:07;;;;;;;6.70;2.67;;;;;;;16.58;54.83;101193.34;6169665;23;20001;-82
2022/05/11 00:49:48;;;;;;;5.07;2.33;;;;;;;16.56;54.74;101189.13;6174994;23;20009;-82
2022/05/11 00:52:18;;;;;;;4.68;2.63;;;;;;;16.55;55.06;101187.44;6171374;23;20002;-82
2022/05/11 00:54:52;;;;;;;4.88;2.50;;;;;;;16.52;54.78;101172.50;6141210;23;20458;-82
2022/05/11 00:57:31;;;;;;;4.45;2.60;;;;;;;16.53;55.26;101173.34;6166296;23;20001;-82
2022/05/11 00:59:58;;;;;;;8.55;2.53;;;;;;;16.51;55.81;101178.03;6169607;23;20028;-83
2022/05/11 01:02:23;;;;;;;6.50;2.47;;;;;;;16.54;55.56;101181.25;6171902;23;20013;-82
2022/05/11 01:04:53;;;;;;;4.40;2.15;;;;;;;16.49;55.82;101169.25;6171941;23;20005;-82
2022/05/11 01:07:22;;;;;;;4.90;2.20;;;;;;;16.53;55.65;101176.03;6168471;23;20021;-81
2022/05/11 01:09:47;;;;;;;6.10;2.70;;;;;;;16.54;55.67;101165.16;6167295;23;20328;-82
2022/05/11 01:12:16;;;;;;;4.53;2.47;;;;;;;16.54;55.71;101169.69;6167280;23;20008;-81
2022/05/11 01:14:46;;;;;;;4.25;2.25;;;;;;;16.47;56.20;101169.44;6166754;23;20001;-82
2022/05/11 01:17:12;;;;;;;5.20;2.50;;;;;;;16.47;55.61;101156.03;6167371;23;20005;-82
2022/05/11 01:19:43;;;;;;;3.75;2.30;;;;;;;16.51;55.81;101156.56;6168004;23;20040;-82
2022/05/11 01:22:30;;;;;;;6.78;2.28;;;;;;;16.50;55.69;101153.03;6141847;23;20021;-82
2022/05/11 01:24:56;;;;;;;2.47;2.20;;;;;;;16.45;56.13;101153.50;6140999;23;20013;-82
2022/05/11 01:27:27;;;;;;;4.22;2.00;;;;;;;16.42;56.30;101145.75;6167900;23;20009;-82
2022/05/11 01:29:54;;;;;;;8.45;2.38;;;;;;;16.45;55.97;101145.44;6166392;23;20005;-82
2022/05/11 01:32:21;;;;;;;6.30;2.10;;;;;;;16.43;56.85;101147.41;6166834;23;20009;-82
2022/05/11 01:34:54;;;;;;;3.03;2.17;;;;;;;16.42;56.34;101145.75;6165932;23;20002;-82
2022/05/11 01:37:20;;;;;;;4.63;2.15;;;;;;;16.42;56.72;101151.09;6165929;23;20013;-82
2022/05/11 01:39:45;;;;;;;4.18;2.30;;;;;;;16.40;56.77;101139.69;6167218;23;20010;-82
2022/05/11 01:42:13;;;;;;;2.85;2.17;;;;;;;16.38;56.79;101155.06;6167487;23;20002;-82
2022/05/11 01:44:39;;;;;;;6.57;2.03;;;;;;;16.38;56.82;101155.06;6142120;23;20011;-82
2022/05/11 01:47:04;;;;;;;4.90;2.08;;;;;;;16.38;56.94;101148.84;6142932;23;20321;-82
2022/05/11 01:49:31;;;;;;;4.18;2.15;;;;;;;16.34;56.80;101147.47;6144245;23;20068;-83
2022/05/11 01:51:56;;;;;;;4.70;1.88;;;;;;;16.34;57.70;101152.84;6168517;23;20446;-82
2022/05/11 01:54:22;;;;;;;3.85;2.60;;;;;;;16.34;57.00;101148.31;6170190;23;20009;-81
2022/05/11 01:56:47;;;;;;;6.55;2.45;;;;;;;16.32;56.95;101138.72;6171711;23;20025;-81
2022/05/11 01:59:12;;;;;;;3.67;2.50;;;;;;;16.34;56.86;101147.47;6171167;23;20005;-81
2022/05/11 02:01:41;;;;;;;8.27;2.30;;;;;;;16.27;56.92;101137.34;6141843;23;20005;-80
2022/05/11 02:07:49;;;;;;;5.72;2.30;;;;;;;16.27;57.42;101140.03;6169483;23;20009;-81
2022/05/11 02:09:41;;;;;;;6.75;2.00;;;;;;;16.30;56.88;101143.38;6168471;23;20151;-82
2022/05/11 02:12:12;;;;;;;3.72;2.42;;;;;;;16.26;56.91;101134.81;6164673;23;20017;-83
2022/05/11 02:14:38;;;;;;;3.20;2.28;;;;;;;16.30;57.14;101136.19;6165887;23;20085;-82
2022/05/11 02:17:03;;;;;;;4.90;2.33;;;;;;;16.24;57.26;101131.44;6166018;23;20001;-82
2022/05/11 02:19:29;;;;;;;4.18;2.08;;;;;;;16.22;57.24;101128.03;6164581;23;20017;-83
2022/05/11 02:21:55;;;;;;;4.82;2.47;;;;;;;16.20;57.54;101125.50;6167537;23;20002;-82
2022/05/11 02:24:20;;;;;;;3.20;2.17;;;;;;;16.22;57.37;101131.59;6166272;23;20465;-82
2022/05/11 02:26:45;;;;;;;6.90;2.53;;;;;;;16.19;57.19;101125.69;6140709;23;19993;-82
2022/05/11 02:29:11;;;;;;;2.60;2.08;;;;;;;16.18;57.32;101130.16;6163593;23;20001;-83
2022/05/11 02:31:37;;;;;;;4.50;2.35;;;;;;;16.17;57.32;101123.16;6165891;23;20000;-82
2022/05/11 02:34:05;;;;;;;3.42;2.03;;;;;;;16.16;57.78;101131.31;6163752;23;20008;-82
2022/05/11 02:36:32;;;;;;;4.90;2.08;;;;;;;16.16;57.52;101125.97;6169693;23;20061;-82
2022/05/11 02:38:57;;;;;;;4.13;1.90;;;;;;;16.14;57.52;101126.13;6140216;23;19998;-82
2022/05/11 02:41:23;;;;;;;5.28;2.30;;;;;;;16.16;57.70;101132.16;6165681;23;20028;-81
2022/05/11 02:43:48;;;;;;;4.13;2.10;;;;;;;16.12;57.54;101122.75;6167478;23;20006;-81
2022/05/11 02:46:14;;;;;;;3.35;2.10;;;;;;;16.09;57.23;101121.19;6166338;23;20009;-81
2022/05/11 02:48:39;;;;;;;5.28;2.13;;;;;;;16.10;57.75;101119.34;6165456;23;20009;-81
2022/05/11 02:51:05;;;;;;;3.28;2.08;;;;;;;16.12;57.88;101122.75;6167587;23;20308;-81
2022/05/11 02:53:32;;;;;;;7.45;2.03;;;;;;;16.07;57.56;101122.31;6167031;23;20009;-81
2022/05/11 02:55:57;;;;;;;6.88;2.13;;;;;;;16.09;57.96;101131.91;6170389;23;20009;-82
2022/05/11 02:58:25;;;;;;;2.90;2.17;;;;;;;16.03;57.75;101121.75;6139755;23;20015;-81
2022/05/11 03:00:52;;;;;;;4.80;2.30;;;;;;;16.03;57.81;101119.09;6169734;23;20005;-81
2022/05/11 03:03:19;;;;;;;3.92;2.60;;;;;;;16.05;57.85;101122.50;6177097;23;20052;-81
2022/05/11 03:05:45;;;;;;;4.68;2.20;;;;;;;16.03;58.05;101124.44;6171819;23;20008;-81
2022/05/11 03:08:11;;;;;;;3.08;2.22;;;;;;;16.04;58.11;101120.78;6169890;23;20358;-82
2022/05/11 03:10:39;;;;;;;5.65;2.10;;;;;;;16.01;58.20;101112.19;6167617;23;20017;-82
2022/05/11 03:13:04;;;;;;;3.63;2.13;;;;;;;16.02;58.03;101112.06;6167449;23;20324;-81
2022/05/11 03:15:31;;;;;;;2.67;1.95;;;;;;;16.00;58.07;101105.16;6165863;23;20016;-81
2022/05/11 03:17:56;;;;;;;5.00;2.13;;;;;;;16.02;57.92;101106.69;6166491;23;20327;-81
2022/05/11 03:20:23;;;;;;;4.68;2.08;;;;;;;16.00;58.38;101103.28;6166744;23;20025;-81
2022/05/11 03:22:53;;;;;;;7.00;2.08;;;;;;;16.00;58.12;101097.94;6168715;23;20006;-82
2022/05/11 03:25:18;;;;;;;4.03;2.10;;;;;;;16.00;57.83;101095.25;6172689;23;20029;-82
2022/05/11 03:27:44;;;;;;;5.80;2.10;;;;;;;15.99;58.74;101093.59;6165847;23;20005;-81
2022/05/11 03:30:13;;;;;;;6.72;2.40;;;;;;;15.99;58.22;101082.88;6166207;23;20016;-82
2022/05/11 03:35:22;;;;;;;2.90;1.90;;;;;;;16.00;58.46;101091.75;6167881;23;20025;-82
2022/05/11 03:37:51;;;;;;;4.72;2.25;;;;;;;15.96;58.55;101085.00;6165393;23;20009;-81
2022/05/11 03:40:16;;;;;;;6.10;2.40;;;;;;;15.99;58.33;101092.75;6168369;23;20065;-81
2022/05/11 03:42:42;;;;;;;2.97;2.38;;;;;;;15.92;58.54;101079.09;6166264;23;20426;-81
2022/05/11 03:45:20;;;;;;;3.17;2.40;;;;;;;15.96;58.41;101085.00;6167439;23;20089;-83
2022/05/11 03:47:48;;;;;;;4.28;2.30;;;;;;;15.91;58.51;101077.41;6167948;23;20072;-82
2022/05/11 03:50:16;;;;;;;4.60;2.42;;;;;;;15.89;58.69;101074.88;6168269;23;20320;-82
2022/05/11 03:52:41;;;;;;;4.30;2.67;;;;;;;15.93;58.26;101077.25;6168552;23;20037;-82
2022/05/11 03:55:10;;;;;;;3.38;2.40;;;;;;;15.91;58.54;101072.06;6168246;23;20431;-82
2022/05/11 03:57:37;;;;;;;4.70;2.30;;;;;;;15.90;58.55;101075.72;6141765;23;20002;-82
2022/05/11 04:00:08;;;;;;;6.95;2.53;;;;;;;15.84;59.24;101073.63;6167229;23;20002;-82
2022/05/11 04:02:33;;;;;;;5.07;2.42;;;;;;;15.88;58.86;101083.06;6140444;23;20018;-82
2022/05/11 04:04:59;;;;;;;2.40;2.17;;;;;;;15.85;58.77;101075.31;6166018;23;20024;-82
2022/05/11 04:07:24;;;;;;;5.90;2.15;;;;;;;15.82;59.24;101076.47;6166395;23;20085;-82
2022/05/11 04:09:50;;;;;;;5.35;2.15;;;;;;;15.83;59.42;101082.66;6166891;23;20009;-82
2022/05/11 04:12:15;;;;;;;5.60;2.20;;;;;;;15.78;59.26;101074.22;6167694;23;20009;-82
2022/05/11 04:14:41;;;;;;;5.38;2.10;;;;;;;15.75;59.78;101069.09;6166687;23;20457;-82
2022/05/11 04:17:07;;;;;;;6.35;2.78;;;;;;;15.75;59.72;101071.78;6167654;23;20057;-83
2022/05/11 04:19:32;;;;;;;5.15;2.30;;;;;;;15.72;59.33;101068.41;6168708;23;20019;-83
2022/05/11 04:21:58;;;;;;;4.60;2.00;;;;;;;15.67;60.28;101068.00;6168739;23;20033;-82
2022/05/11 04:24:24;;;;;;;3.38;2.22;;;;;;;15.68;59.77;101079.56;6169125;23;20001;-81
2022/05/11 04:26:51;;;;;;;5.22;1.70;;;;;;;15.65;60.09;101078.00;6169134;23;20025;-82
2022/05/11 04:29:17;;;;;;;8.02;2.40;;;;;;;15.60;60.15;101076.75;6167460;23;20061;-82
2022/05/11 04:31:45;;;;;;;6.57;2.25;;;;;;;15.56;60.23;101073.53;6168826;23;20006;-82
2022/05/11 04:34:38;;;;;;;4.35;2.15;;;;;;;15.62;60.10;101067.59;6170230;23;20008;-82
2022/05/11 04:37:03;;;;;;;2.80;2.10;;;;;;;15.58;60.17;101070.72;6144495;23;20073;-82
2022/05/11 04:39:30;;;;;;;3.15;2.28;;;;;;;15.55;61.02;101066.47;6171572;23;20433;-82
2022/05/11 04:41:55;;;;;;;4.88;2.40;;;;;;;15.56;60.58;101070.84;6154301;23;20006;-82
2022/05/11 04:44:20;;;;;;;5.57;2.30;;;;;;;15.50;60.90;101074.97;6148940;23;20004;-81
2022/05/11 04:46:46;;;;;;;5.75;2.20;;;;;;;15.46;61.20;101076.22;6169741;23;20435;-81
2022/05/11 04:49:17;;;;;;;6.50;2.42;;;;;;;15.50;61.17;101074.09;6168319;23;20066;-82
2022/05/11 04:51:47;;;;;;;5.07;2.28;;;;;;;15.45;60.98;101076.38;6143158;23;20006;-82
2022/05/11 04:54:13;;;;;;;5.75;2.28;;;;;;;15.47;61.32;101074.38;6168491;23;20064;-82
2022/05/11 04:56:38;;;;;;;5.70;2.30;;;;;;;15.43;61.26;101063.13;6170068;23;20005;-82
2022/05/11 04:59:08;;;;;;;5.43;2.75;;;;;;;15.43;61.56;101067.66;6171244;23;20006;-82
2022/05/11 05:01:36;;;;;;;5.22;2.67;;;;;;;15.48;61.56;101073.41;6174253;23;20010;-82
2022/05/11 05:04:02;;;;;;;6.83;3.00;;;;;;;15.46;61.73;101068.19;6190002;23;20021;-82
2022/05/11 05:06:32;;;;;;;3.88;2.55;;;;;;;15.51;61.55;101075.81;6174607;23;20006;-82
2022/05/11 05:08:59;;;;;;;3.42;2.35;;;;;;;15.53;62.15;101077.34;6173717;23;20005;-82
2022/05/11 05:11:24;;;;;;;6.72;2.90;;;;;;;15.58;62.13;101068.88;6172230;23;20033;-83
2022/05/11 05:13:50;;;;;;;4.32;2.33;;;;;;;15.61;62.17;101067.75;6173783;23;20013;-83
2022/05/11 05:16:15;;;;;;;3.42;2.50;;;;;;;15.68;61.86;101063.50;6178391;23;20016;-82
2022/05/11 05:18:41;;;;;;;5.80;2.67;;;;;;;15.80;61.77;101077.59;6182810;23;20005;-82
2022/05/11 05:21:06;;;;;;;5.93;2.60;;;;;;;15.89;61.67;101074.03;6181833;23;19998;-82
2022/05/11 05:23:31;;;;;;;8.50;2.85;;;;;;;16.04;61.45;101083.28;6180528;23;20005;-82
2022/05/11 05:25:57;;;;;;;4.88;2.67;;;;;;;16.15;60.61;101082.22;6172479;23;20002;-82
2022/05/11 05:31:09;;;;;;;8.32;2.70;;;;;;;16.47;59.89;101086.31;6182214;23;20020;-82
2022/05/11 05:33:37;;;;;;;5.53;2.67;;;;;;;16.62;59.44;101087.47;6180187;23;20016;-82
2022/05/11 05:36:09;;;;;;;5.82;2.83;;;;;;;16.72;59.45;101082.06;6181060;23;20057;-82
2022/05/11 05:38:38;;;;;;;8.10;2.72;;;;;;;16.89;58.30;101082.25;6175371;23;20021;-82
2022/05/11 05:41:07;;;;;;;5.28;2.50;;;;;;;17.06;58.45;101083.25;6171693;23;20032;-82
2022/05/11 05:43:32;;;;;;;5.97;2.90;;;;;;;17.13;57.70;101078.94;6171329;23;20028;-82
2022/05/11 05:45:58;;;;;;;3.83;2.38;;;;;;;17.34;57.11;101087.50;6173411;23;20010;-82
2022/05/11 05:48:24;;;;;;;4.10;2.63;;;;;;;17.42;56.61;101080.50;6172141;23;19998;-84
2022/05/11 05:50:49;;;;;;;7.25;2.30;;;;;;;17.48;55.80;101082.56;6169378;23;20470;-81
2022/05/11 05:53:19;;;;;;;3.58;2.40;;;;;;;17.50;55.48;101086.78;6169455;23;20036;-83
2022/05/11 05:55:46;;;;;;;7.75;2.65;;;;;;;17.63;55.29;101089.03;6168723;23;20017;-82
2022/05/11 05:58:12;;;;;;;3.75;2.17;;;;;;;17.72;55.39;101089.97;6175558;23;20005;-81
2022/05/11 06:00:37;;;;;;;4.25;2.42;;;;;;;17.78;54.99;101097.38;6183559;23;20069;-80
2022/05/11 06:03:03;;;;;;;5.53;2.33;;;;;;;17.84;54.85;101094.06;6183355;23;20061;-81
2022/05/11 06:05:29;;;;;;;2.95;2.00;;;;;;;17.79;54.81;101088.31;6183256;23;20039;-82
2022/05/11 06:07:55;;;;;;;3.87;1.97;;;;;;;17.77;54.74;101101.06;6182529;23;19994;-81
2022/05/11 06:10:23;;;;;;;3.15;1.90;;;;;;;17.72;54.72;101092.66;6181963;23;20265;-81
2022/05/11 06:12:49;;;;;;;3.10;1.92;;;;;;;17.78;55.03;101094.69;6180850;23;20028;-81
2022/05/11 06:15:14;;;;;;;8.23;2.20;;;;;;;17.75;53.49;101090.47;6182840;23;19994;-82
2022/05/11 06:17:40;;;;;;;2.35;1.85;;;;;;;17.78;53.80;101091.16;6183292;23;20041;-81
2022/05/11 06:20:08;;;;;;;7.93;2.13;;;;;;;17.81;53.16;101089.00;6183028;23;20008;-82
2022/05/11 06:22:34;;;;;;;5.28;2.10;;;;;;;17.86;53.27;101083.16;6183552;23;19998;-81
2022/05/11 06:25:00;;;;;;;3.17;1.80;;;;;;;17.97;52.07;101084.72;6182700;23;20010;-81
2022/05/11 06:27:26;;;;;;;4.65;1.95;;;;;;;18.08;52.15;101081.78;6182086;23;20000;-82
2022/05/11 06:29:54;;;;;;;5.68;1.90;;;;;;;18.18;50.88;101085.16;6182285;23;20064;-81
2022/05/11 06:32:19;;;;;;;3.60;1.83;;;;;;;18.37;51.63;101085.91;6183307;23;20068;-81
2022/05/11 06:34:53;;;;;;;6.57;2.25;;;;;;;18.62;50.87;101085.00;6182652;23;19990;-81
2022/05/11 06:37:19;;;;;;;4.82;1.83;;;;;;;18.78;49.77;101076.09;6181602;23;20000;-82
2022/05/11 06:39:45;;;;;;;7.63;2.00;;;;;;;18.87;49.64;101074.31;6182108;23;20017;-81
2022/05/11 06:42:13;;;;;;;6.00;1.65;;;;;;;19.03;50.05;101074.34;6182299;23;19998;-81
2022/05/11 06:44:38;;;;;;;5.47;1.77;;;;;;;19.35;49.63;101072.63;6183526;23;20037;-81
2022/05/11 06:47:04;;;;;;;6.90;1.92;;;;;;;19.53;48.31;101071.59;6181764;23;20025;-79
2022/05/11 06:49:33;;;;;;;5.38;1.80;;;;;;;19.75;47.62;101084.38;6174380;23;20020;-81
2022/05/11 06:51:59;;;;;;;7.38;1.90;;;;;;;19.82;46.33;101072.91;6175575;23;20017;-82
2022/05/11 07:00:06;;;;;;;3.67;1.98;;;;;;;20.24;45.26;101061.78;6158223;23;20498;-82
2022/05/11 07:03:00;;;;;;;5.13;2.00;;;;;;;20.50;46.99;101063.34;6158883;23;20072;-82
2022/05/11 07:09:36;;;;;;;2.83;1.83;;;;;;;20.98;45.93;101069.44;6153817;23;20028;-83
2022/05/11 07:14:53;;;;;;;4.50;1.92;;;;;;;21.37;43.98;101059.53;6190995;23;20019;-81
2022/05/11 07:17:24;;;;;;;3.45;2.00;;;;;;;21.63;44.05;101069.91;6193257;23;20011;-82
2022/05/11 07:19:50;;;;;;;6.57;2.08;;;;;;;21.75;43.29;101064.88;6191568;23;20215;-79
2022/05/11 07:22:16;;;;;;;5.32;2.10;;;;;;;21.93;43.29;101070.78;6207448;23;20024;-81
2022/05/11 07:24:43;;;;;;;4.70;2.10;;;;;;;22.15;42.48;101076.28;6196121;23;20009;-81
2022/05/11 07:27:08;;;;;;;5.22;1.85;;;;;;;22.24;40.96;101063.47;6191230;23;20043;-80
2022/05/11 07:29:34;;;;;;;8.60;2.13;;;;;;;22.22;40.83;101071.78;6190384;23;20005;-79
2022/05/11 07:31:59;;;;;;;6.47;2.30;;;;;;;22.32;41.07;101060.69;6189431;23;20081;-80
2022/05/11 07:34:25;;;;;;;5.25;1.88;;;;;;;22.42;40.08;101060.41;6189745;23;20028;-80
2022/05/11 07:36:54;;;;;;;5.68;2.20;;;;;;;22.69;39.60;101062.34;6189860;23;20075;-79
2022/05/11 07:39:37;;;;;;;5.72;2.03;;;;;;;22.77;39.40;101063.28;6184014;23;20687;-79
2022/05/11 07:42:04;;;;;;;5.28;1.60;;;;;;;22.48;37.89;101060.47;6200268;23;20024;-82
2022/05/11 07:44:29;;;;;;;5.82;1.88;;;;;;;22.52;38.07;101069.06;6202476;23;20037;-81
2022/05/11 07:47:35;;;;;;;9.07;2.10;;;;;;;22.49;38.78;101070.25;6198892;23;19993;-84
2022/05/11 07:50:04;;;;;;;6.50;1.90;;;;;;;22.69;37.84;101067.78;6203205;23;20241;-84
2022/05/11 07:52:30;;;;;;;5.90;1.92;;;;;;;22.57;38.04;101074.72;6199791;23;20013;-85
2022/05/11 07:54:55;;;;;;;5.95;2.05;;;;;;;22.65;38.13;101071.03;6203250;23;20005;-82
2022/05/11 08:00:08;;;;;;;4.57;1.80;;;;;;;23.02;37.54;101067.25;6199895;23;20017;-83
2022/05/11 08:02:35;;;;;;;6.25;2.22;;;;;;;23.15;37.96;101077.41;6195640;23;20056;-83
2022/05/11 08:05:09;;;;;;;6.82;2.45;;;;;;;23.20;37.39;101080.38;6197040;23;20028;-83
2022/05/11 08:07:46;;;;;;;7.50;1.98;;;;;;;23.25;37.07;101079.81;6194467;23;20426;-83
2022/05/11 08:10:18;;;;;;;7.90;2.35;;;;;;;23.28;37.52;101079.38;6199973;23;20296;-84
2022/05/11 08:13:05;;;;;;;9.90;1.98;;;;;;;23.46;37.50;101074.34;6195169;23;20076;-84
2022/05/11 08:15:37;;;;;;;5.72;2.40;;;;;;;23.17;37.23;101074.53;6192826;23;20025;-84
2022/05/11 08:18:04;;;;;;;5.22;1.80;;;;;;;22.91;37.07;101068.63;6191308;23;20036;-83
2022/05/11 08:20:33;;;;;;;6.97;2.53;;;;;;;23.20;36.78;101068.69;6192190;23;20360;-83
2022/05/11 08:23:00;;;;;;;8.60;2.72;;;;;;;23.48;37.60;101070.59;6197422;23;20005;-81
2022/05/11 08:25:28;;;;;;;6.93;2.10;;;;;;;23.76;36.57;101070.56;6191894;23;20020;-83
2022/05/11 08:27:57;;;;;;;5.50;2.80;;;;;;;23.76;35.33;101059.72;6193888;23;20012;-85
2022/05/11 08:33:23;;;;;;;9.10;1.92;;;;;;;23.89;35.33;101067.97;6191702;23;20020;-86
2022/05/11 08:35:52;;;;;;;4.32;2.17;;;;;;;23.83;35.78;101064.19;6188385;23;20027;-85
2022/05/11 08:38:20;;;;;;;8.30;2.28;;;;;;;23.92;35.36;101045.84;6189818;23;20390;-85
2022/05/11 08:41:06;;;;;;;5.13;2.00;;;;;;;24.40;36.78;101055.88;6189499;23;20382;-84
2022/05/11 08:43:35;;;;;;;8.10;2.05;;;;;;;24.56;34.98;101055.53;6190779;23;20013;-84
2022/05/11 08:46:32;;;;;;;8.20;2.38;;;;;;;24.92;35.37;101058.94;6190999;23;20032;-85
2022/05/11 08:49:21;;;;;;;6.07;2.42;;;;;;;25.04;34.29;101051.81;6193142;23;20001;-84
2022/05/11 08:52:00;;;;;;;6.15;2.10;;;;;;;25.38;34.65;101057.28;6208324;23;20009;-84
2022/05/11 08:55:08;;;;;;;6.22;2.13;;;;;;;25.48;34.14;101055.00;6203045;23;20005;-86
2022/05/11 08:57:36;;;;;;;;;;;;;;;25.72;33.91;101055.38;6185499;23;20001;-86
2022/05/11 09:00:25;;;;;;;7.32;3.20;;;;;;;25.60;33.59;101064.19;6197977;23;19912;-83
2022/05/11 09:02:55;;;;;;;5.97;2.35;;;;;;;25.44;32.86;101051.84;6187037;23;20047;-83
2022/05/11 09:05:26;;;;;;;7.68;2.40;;;;;;;25.43;33.30;101052.91;6212183;23;20044;-84
2022/05/11 09:08:01;;;;;;;6.45;2.03;;;;;;;25.54;33.11;101039.72;6205967;23;20342;-85
2022/05/11 09:10:33;;;;;;;7.05;2.13;;;;;;;25.57;33.66;101048.28;6163119;23;20009;-81
2022/05/11 09:13:04;;;;;;;8.38;2.40;;;;;;;25.58;32.37;101046.38;6203427;23;20013;-84
2022/05/11 09:15:51;;;;;;;6.65;2.50;;;;;;;25.76;34.16;101043.81;6198564;23;20079;-83
2022/05/11 09:18:17;;;;;;;9.05;3.28;;;;;;;25.69;32.42;101039.47;6193562;23;20005;-82
2022/05/11 09:20:50;;;;;;;8.10;2.50;;;;;;;25.72;33.49;101039.03;6190868;23;20016;-82
2022/05/11 09:23:29;;;;;;;5.03;2.17;;;;;;;25.84;33.17;101042.78;6197840;23;20065;-82
2022/05/11 09:26:04;;;;;;;6.63;2.20;;;;;;;26.17;32.75;101034.50;6197721;23;20017;-84
2022/05/11 09:28:42;;;;;;;5.03;2.33;;;;;;;26.61;33.29;101033.84;6189314;23;20016;-83
2022/05/11 09:31:12;;;;;;;9.23;2.85;;;;;;;26.52;31.66;101036.84;6191245;23;20001;-84
2022/05/11 09:33:41;;;;;;;10.30;2.40;;;;;;;26.63;31.84;101035.34;6196595;23;20008;-83
2022/05/11 09:36:09;;;;;;;4.97;2.30;;;;;;;26.38;31.28;101040.72;6205367;23;20009;-83
2022/05/11 09:38:42;;;;;;;7.60;2.47;;;;;;;26.17;31.54;101030.97;6206145;23;20427;-84
2022/05/11 09:41:19;;;;;;;7.40;2.47;;;;;;;26.25;32.50;101029.84;6200984;23;20355;-83
2022/05/11 09:43:53;;;;;;;10.07;2.00;;;;;;;26.07;32.44;101030.59;6194090;23;20009;-83
2022/05/11 09:46:31;;;;;;;6.18;2.60;;;;;;;26.34;31.73;101029.38;6196251;23;20008;-84
2022/05/11 09:49:13;;;;;;;5.25;2.35;;;;;;;26.56;32.38;101026.31;6196864;23;20047;-83
2022/05/11 09:51:38;;;;;;;8.05;2.00;;;;;;;26.74;31.44;101018.28;6201638;23;20395;-83
2022/05/11 09:54:38;;;;;;;10.40;2.87;;;;;;;26.76;32.11;101015.31;6202920;23;20001;-83
2022/05/11 09:57:09;;;;;;;9.35;2.58;;;;;;;26.72;31.57;101016.84;6204288;23;20240;-83
2022/05/11 09:59:40;;;;;;;10.00;3.05;;;;;;;26.75;31.82;101017.22;6209688;23;19997;-83
2022/05/11 10:02:43;;;;;;;9.38;2.72;;;;;;;27.28;32.12;101015.94;6199529;23;20032;-83
2022/05/11 10:05:32;;;;;;;7.47;2.40;;;;;;;27.72;31.45;101021.41;6203132;23;20009;-83
2022/05/11 10:08:13;;;;;;;7.85;2.47;;;;;;;27.85;31.00;101020.41;6206411;23;20008;-82
2022/05/11 10:11:08;;;;;;;7.93;2.10;;;;;;;28.30;31.46;101011.06;6185359;23;20005;-82
2022/05/11 10:21:50;;;;;;;7.53;2.30;;;;;;;28.43;30.78;101017.16;6207327;23;20013;-84
2022/05/11 10:22:45;;;;;;;8.82;2.40;;;;;;;29.23;30.05;101015.09;6209929;23;20032;-83
2022/05/11 10:25:15;;;;;;;6.30;2.25;;;;;;;29.20;28.55;101006.53;6198004;23;20005;-83
2022/05/11 10:27:47;;;;;;;8.48;2.40;;;;;;;29.05;28.93;101006.97;6204330;23;20055;-83
2022/05/11 10:30:38;;;;;;;5.75;2.58;;;;;;;28.95;29.29;101002.91;6205309;23;20009;-82
2022/05/11 10:33:42;;;;;;;12.57;2.40;;;;;;;29.20;29.89;100996.41;6202942;23;20009;-82
2022/05/11 10:36:25;;;;;;;8.40;2.42;;;;;;;29.03;29.05;100992.69;6197317;23;20326;-83
2022/05/11 10:39:15;;;;;;;8.93;2.20;;;;;;;29.23;28.98;100990.47;6206799;23;20009;-83
2022/05/11 10:42:04;;;;;;;6.93;2.40;;;;;;;29.14;28.01;100978.19;6198616;23;20435;-83
2022/05/11 10:44:57;;;;;;;8.32;2.28;;;;;;;29.13;28.23;100982.84;6194822;23;20053;-83
2022/05/11 10:47:42;;;;;;;6.40;2.20;;;;;;;29.23;28.88;100981.41;6197982;23;20009;-85
2022/05/11 10:50:15;;;;;;;7.60;2.35;;;;;;;29.32;28.30;100982.72;6198992;23;20005;-83
2022/05/11 10:52:44;;;;;;;10.65;3.22;;;;;;;29.28;28.49;100987.03;6208188;23;20013;-81
2022/05/11 10:55:12;;;;;;;6.90;2.13;;;;;;;29.32;28.12;100972.63;6205605;23;19995;-80
2022/05/11 10:58:05;;;;;;;8.15;2.58;;;;;;;29.59;28.58;100971.28;6205438;23;20016;-81
2022/05/11 11:00:48;;;;;;;8.00;3.05;;;;;;;29.46;27.60;100967.75;6211250;23;19997;-81
2022/05/11 11:03:49;;;;;;;7.80;2.35;;;;;;;29.27;27.66;100966.22;6209095;23;20430;-81
2022/05/11 11:09:28;;;;;;;6.05;2.05;;;;;;;29.61;28.73;100966.38;6207743;23;20016;-79
2022/05/11 11:11:56;;;;;;;5.00;2.25;;;;;;;29.60;27.51;100957.34;6210707;23;20008;-80
2022/05/11 11:14:45;;;;;;;6.45;2.25;;;;;;;29.49;27.57;100958.19;6183432;23;20013;-80
2022/05/11 11:17:17;;;;;;;8.45;2.40;;;;;;;29.04;27.41;100961.53;6211076;23;19989;-82
2022/05/11 11:19:47;;;;;;;4.57;1.92;;;;;;;29.10;28.02;100957.88;6209053;23;20005;-82
2022/05/11 11:22:13;;;;;;;10.95;2.38;;;;;;;29.19;27.60;100958.38;6209565;23;20004;-82
2022/05/11 11:24:42;;;;;;;6.22;2.10;;;;;;;29.52;27.61;100946.78;6182562;23;20013;-82
2022/05/11 11:27:08;;;;;;;7.45;2.28;;;;;;;29.74;27.67;100951.59;6211442;23;19996;-82
2022/05/11 11:29:36;;;;;;;5.32;2.10;;;;;;;29.24;27.04;100950.28;6210148;23;20028;-81
2022/05/11 11:32:14;;;;;;;;;;;;;;;29.74;27.79;100946.13;6208890;23;20013;-82
2022/05/11 11:34:48;;;;;;;8.07;2.27;;;;;;;29.19;27.17;100940.03;6211671;23;19918;-80
2022/05/11 11:37:32;;;;;;;5.88;2.05;;;;;;;29.32;27.93;100945.25;6209180;23;19993;-79
2022/05/11 11:39:59;;;;;;;5.10;2.10;;;;;;;29.43;27.30;100931.81;6211650;23;19989;-79
2022/05/11 11:42:30;;;;;;;4.85;1.92;;;;;;;29.23;26.74;100940.38;6211761;23;20036;-80
2022/05/11 11:44:55;;;;;;;9.30;2.20;;;;;;;29.04;26.47;100931.47;6213467;23;19989;-81
2022/05/11 11:47:33;;;;;;;6.35;1.90;;;;;;;29.10;26.85;100933.25;6211610;23;20056;-80
2022/05/11 11:49:59;;;;;;;8.35;2.20;;;;;;;29.08;26.85;100929.94;6209393;23;20016;-80
2022/05/11 11:52:40;;;;;;;6.03;1.83;;;;;;;29.14;27.90;100924.34;6200911;23;20415;-81
2022/05/11 11:55:30;;;;;;;4.28;2.00;;;;;;;29.41;28.02;100932.06;6199558;23;20318;-81
2022/05/11 11:58:10;;;;;;;8.27;2.15;;;;;;;29.23;26.75;100926.72;6182564;23;20071;-80
2022/05/11 12:00:48;;;;;;;10.63;2.17;;;;;;;29.32;27.53;100923.38;6194184;23;20024;-81
2022/05/11 12:03:19;;;;;;;6.83;1.90;;;;;;;29.15;27.56;100917.78;6173727;23;20025;-80
2022/05/11 12:05:50;;;;;;;6.03;2.15;;;;;;;29.21;27.23;100906.97;6210677;23;20013;-81
2022/05/11 12:17:03;;;;;;;6.72;2.00;;;;;;;28.37;26.83;100903.34;6202470;23;20031;-81
2022/05/11 12:19:32;;;;;;;7.45;2.08;;;;;;;28.42;27.13;100900.72;6202139;23;20005;-80
2022/05/11 12:22:22;;;;;;;8.90;2.15;;;;;;;28.24;27.80;100903.53;6178052;23;20009;-80
2022/05/11 12:25:20;;;;;;;11.38;2.42;;;;;;;28.18;28.31;100894.41;6203090;23;20028;-80